sensor_id;sensor_type;location;lat;lon;timestamp;temperature;humidity
66057;DHT22;52842;52.666;5.202;2022-10-16T00:01:06;19.10;83.30
66057;DHT22;52842;52.666;5.202;2022-10-16T00:03:34;19.00;83.20
66057;DHT22;52842;52.666;5.202;2022-10-16T00:06:01;19.00;83.20
66057;DHT22;52842;52.666;5.202;2022-10-16T00:08:27;19.00;83.20
66057;DHT22;52842;52.666;5.202;2022-10-16T00:10:58;19.00;83.20
66057;DHT22;52842;52.666;5.202;2022-10-16T00:13:24;19.00;83.20
66057;DHT22;52842;52.666;5.202;2022-10-16T00:15:54;19.00;83.20
66057;DHT22;52842;52.666;5.202;2022-10-16T00:18:20;18.90;83.10
66057;DHT22;52842;52.666;5.202;2022-10-16T00:20:47;19.00;83.20
66057;DHT22;52842;52.666;5.202;2022-10-16T00:23:14;18.90;83.10
66057;DHT22;52842;52.666;5.202;2022-10-16T00:25:40;19.00;83.10
66057;DHT22;52842;52.666;5.202;2022-10-16T00:28:07;18.90;83.10
66057;DHT22;52842;52.666;5.202;2022-10-16T00:30:34;18.90;83.00
66057;DHT22;52842;52.666;5.202;2022-10-16T00:33:04;18.90;83.00
66057;DHT22;52842;52.666;5.202;2022-10-16T00:35:31;18.90;83.10
66057;DHT22;52842;52.666;5.202;2022-10-16T00:37:58;18.90;83.10
66057;DHT22;52842;52.666;5.202;2022-10-16T00:40:24;18.90;83.00
66057;DHT22;52842;52.666;5.202;2022-10-16T00:42:51;18.90;83.00
66057;DHT22;52842;52.666;5.202;2022-10-16T00:45:18;18.80;82.90
66057;DHT22;52842;52.666;5.202;2022-10-16T00:47:45;18.80;82.90
66057;DHT22;52842;52.666;5.202;2022-10-16T00:50:18;18.80;82.90
66057;DHT22;52842;52.666;5.202;2022-10-16T00:52:46;18.80;82.90
66057;DHT22;52842;52.666;5.202;2022-10-16T00:55:12;18.80;82.90
66057;DHT22;52842;52.666;5.202;2022-10-16T00:57:39;18.80;82.90
66057;DHT22;52842;52.666;5.202;2022-10-16T01:00:07;18.80;82.90
66057;DHT22;52842;52.666;5.202;2022-10-16T01:02:35;18.80;82.80
66057;DHT22;52842;52.666;5.202;2022-10-16T01:05:01;18.80;82.80
66057;DHT22;52842;52.666;5.202;2022-10-16T01:07:33;18.80;82.80
66057;DHT22;52842;52.666;5.202;2022-10-16T01:10:06;18.80;82.80
66057;DHT22;52842;52.666;5.202;2022-10-16T01:12:36;18.80;82.80
66057;DHT22;52842;52.666;5.202;2022-10-16T01:15:06;18.80;82.80
66057;DHT22;52842;52.666;5.202;2022-10-16T01:17:38;18.70;82.80
66057;DHT22;52842;52.666;5.202;2022-10-16T01:20:08;18.70;82.80
66057;DHT22;52842;52.666;5.202;2022-10-16T01:22:39;18.70;82.80
66057;DHT22;52842;52.666;5.202;2022-10-16T01:25:11;18.70;82.80
66057;DHT22;52842;52.666;5.202;2022-10-16T01:27:40;18.70;82.80
66057;DHT22;52842;52.666;5.202;2022-10-16T01:30:10;18.70;82.80
66057;DHT22;52842;52.666;5.202;2022-10-16T01:32:40;18.70;82.90
66057;DHT22;52842;52.666;5.202;2022-10-16T01:35:08;18.70;82.80
66057;DHT22;52842;52.666;5.202;2022-10-16T01:37:36;18.70;82.90
66057;DHT22;52842;52.666;5.202;2022-10-16T01:40:05;18.70;82.80
66057;DHT22;52842;52.666;5.202;2022-10-16T01:42:34;18.70;82.80
66057;DHT22;52842;52.666;5.202;2022-10-16T01:45:04;18.70;82.70
66057;DHT22;52842;52.666;5.202;2022-10-16T01:47:31;18.70;82.70
66057;DHT22;52842;52.666;5.202;2022-10-16T01:49:59;18.70;82.70
66057;DHT22;52842;52.666;5.202;2022-10-16T01:52:27;18.70;82.70
66057;DHT22;52842;52.666;5.202;2022-10-16T01:54:55;18.70;82.60
66057;DHT22;52842;52.666;5.202;2022-10-16T01:57:23;18.80;82.60
66057;DHT22;52842;52.666;5.202;2022-10-16T01:59:51;18.70;82.60
66057;DHT22;52842;52.666;5.202;2022-10-16T02:02:20;18.80;82.60
66057;DHT22;52842;52.666;5.202;2022-10-16T02:04:49;18.80;82.60
66057;DHT22;52842;52.666;5.202;2022-10-16T02:07:17;18.70;82.50
66057;DHT22;52842;52.666;5.202;2022-10-16T02:09:44;18.80;82.50
66057;DHT22;52842;52.666;5.202;2022-10-16T02:12:12;18.80;82.40
66057;DHT22;52842;52.666;5.202;2022-10-16T02:14:39;18.70;82.40
66057;DHT22;52842;52.666;5.202;2022-10-16T02:17:10;18.80;82.40
66057;DHT22;52842;52.666;5.202;2022-10-16T02:19:38;18.80;82.40
66057;DHT22;52842;52.666;5.202;2022-10-16T02:22:05;18.70;82.30
66057;DHT22;52842;52.666;5.202;2022-10-16T02:24:33;18.80;82.40
66057;DHT22;52842;52.666;5.202;2022-10-16T02:27:03;18.80;82.40
66057;DHT22;52842;52.666;5.202;2022-10-16T02:29:33;18.80;82.40
66057;DHT22;52842;52.666;5.202;2022-10-16T02:32:03;18.70;82.30
66057;DHT22;52842;52.666;5.202;2022-10-16T02:34:31;18.80;82.30
66057;DHT22;52842;52.666;5.202;2022-10-16T02:36:59;18.80;82.30
66057;DHT22;52842;52.666;5.202;2022-10-16T02:39:29;18.80;82.30
66057;DHT22;52842;52.666;5.202;2022-10-16T02:41:56;18.80;82.30
66057;DHT22;52842;52.666;5.202;2022-10-16T02:44:22;18.80;82.30
66057;DHT22;52842;52.666;5.202;2022-10-16T02:46:49;18.80;82.20
66057;DHT22;52842;52.666;5.202;2022-10-16T02:49:16;18.80;82.20
66057;DHT22;52842;52.666;5.202;2022-10-16T02:51:43;18.70;82.10
66057;DHT22;52842;52.666;5.202;2022-10-16T02:54:11;18.80;82.10
66057;DHT22;52842;52.666;5.202;2022-10-16T02:56:38;18.70;82.10
66057;DHT22;52842;52.666;5.202;2022-10-16T02:59:04;18.80;82.10
66057;DHT22;52842;52.666;5.202;2022-10-16T03:01:31;18.80;82.10
66057;DHT22;52842;52.666;5.202;2022-10-16T03:03:58;18.70;82.00
66057;DHT22;52842;52.666;5.202;2022-10-16T03:06:24;18.70;82.00
66057;DHT22;52842;52.666;5.202;2022-10-16T03:08:51;18.70;82.00
66057;DHT22;52842;52.666;5.202;2022-10-16T03:11:19;18.70;82.00
66057;DHT22;52842;52.666;5.202;2022-10-16T03:13:46;18.70;82.00
66057;DHT22;52842;52.666;5.202;2022-10-16T03:16:12;18.70;82.00
66057;DHT22;52842;52.666;5.202;2022-10-16T03:18:39;18.70;82.00
66057;DHT22;52842;52.666;5.202;2022-10-16T03:21:06;18.70;82.00
66057;DHT22;52842;52.666;5.202;2022-10-16T03:23:33;18.70;82.00
66057;DHT22;52842;52.666;5.202;2022-10-16T03:25:59;18.70;82.00
66057;DHT22;52842;52.666;5.202;2022-10-16T03:28:27;18.70;82.00
66057;DHT22;52842;52.666;5.202;2022-10-16T03:30:54;18.70;82.00
66057;DHT22;52842;52.666;5.202;2022-10-16T03:33:20;18.70;82.00
66057;DHT22;52842;52.666;5.202;2022-10-16T03:35:50;18.70;82.00
66057;DHT22;52842;52.666;5.202;2022-10-16T03:38:17;18.70;81.90
66057;DHT22;52842;52.666;5.202;2022-10-16T03:40:44;18.70;81.90
66057;DHT22;52842;52.666;5.202;2022-10-16T03:43:10;18.70;81.90
66057;DHT22;52842;52.666;5.202;2022-10-16T03:45:38;18.70;81.90
66057;DHT22;52842;52.666;5.202;2022-10-16T03:48:05;18.70;81.90
66057;DHT22;52842;52.666;5.202;2022-10-16T03:50:32;18.70;81.80
66057;DHT22;52842;52.666;5.202;2022-10-16T03:52:58;18.70;81.80
66057;DHT22;52842;52.666;5.202;2022-10-16T03:55:25;18.70;81.80
66057;DHT22;52842;52.666;5.202;2022-10-16T03:57:52;18.70;81.80
66057;DHT22;52842;52.666;5.202;2022-10-16T04:00:18;18.70;81.70
66057;DHT22;52842;52.666;5.202;2022-10-16T04:02:46;18.70;81.80
66057;DHT22;52842;52.666;5.202;2022-10-16T04:05:13;18.70;81.70
66057;DHT22;52842;52.666;5.202;2022-10-16T04:07:40;18.70;81.80
66057;DHT22;52842;52.666;5.202;2022-10-16T04:10:06;18.80;81.80
66057;DHT22;52842;52.666;5.202;2022-10-16T04:12:33;18.80;81.90
66057;DHT22;52842;52.666;5.202;2022-10-16T04:15:00;19.10;82.00
66057;DHT22;52842;52.666;5.202;2022-10-16T04:17:26;19.40;81.10
66057;DHT22;52842;52.666;5.202;2022-10-16T04:19:55;19.70;79.90
66057;DHT22;52842;52.666;5.202;2022-10-16T04:22:21;20.10;78.60
66057;DHT22;52842;52.666;5.202;2022-10-16T04:27:15;20.50;75.60
66057;DHT22;52842;52.666;5.202;2022-10-16T04:29:41;20.60;75.60
66057;DHT22;52842;52.666;5.202;2022-10-16T04:32:08;20.70;75.10
66057;DHT22;52842;52.666;5.202;2022-10-16T04:34:35;20.70;74.80
66057;DHT22;52842;52.666;5.202;2022-10-16T04:37:04;20.70;74.60
66057;DHT22;52842;52.666;5.202;2022-10-16T04:39:31;20.60;74.60
66057;DHT22;52842;52.666;5.202;2022-10-16T04:41:57;20.60;74.70
66057;DHT22;52842;52.666;5.202;2022-10-16T04:44:24;20.60;74.90
66057;DHT22;52842;52.666;5.202;2022-10-16T04:46:51;20.50;74.90
66057;DHT22;52842;52.666;5.202;2022-10-16T04:49:17;20.40;75.00
66057;DHT22;52842;52.666;5.202;2022-10-16T04:51:44;20.30;75.10
66057;DHT22;52842;52.666;5.202;2022-10-16T04:54:12;20.30;75.20
66057;DHT22;52842;52.666;5.202;2022-10-16T04:56:39;20.30;75.40
66057;DHT22;52842;52.666;5.202;2022-10-16T04:59:12;20.30;75.80
66057;DHT22;52842;52.666;5.202;2022-10-16T05:01:38;20.30;75.80
66057;DHT22;52842;52.666;5.202;2022-10-16T05:04:05;20.40;75.70
66057;DHT22;52842;52.666;5.202;2022-10-16T05:06:32;20.50;75.30
66057;DHT22;52842;52.666;5.202;2022-10-16T05:08:59;20.60;74.90
66057;DHT22;52842;52.666;5.202;2022-10-16T05:11:27;20.80;74.40
66057;DHT22;52842;52.666;5.202;2022-10-16T05:13:53;20.90;73.90
66057;DHT22;52842;52.666;5.202;2022-10-16T05:16:20;20.90;73.40
66057;DHT22;52842;52.666;5.202;2022-10-16T05:18:46;20.70;73.40
66057;DHT22;52842;52.666;5.202;2022-10-16T05:21:13;20.60;73.70
66057;DHT22;52842;52.666;5.202;2022-10-16T05:23:40;20.50;74.10
66057;DHT22;52842;52.666;5.202;2022-10-16T05:26:06;20.30;74.50
66057;DHT22;52842;52.666;5.202;2022-10-16T05:28:34;20.20;74.90
66057;DHT22;52842;52.666;5.202;2022-10-16T05:31:03;20.10;75.20
66057;DHT22;52842;52.666;5.202;2022-10-16T05:33:30;20.10;75.50
66057;DHT22;52842;52.666;5.202;2022-10-16T05:35:57;20.00;75.80
66057;DHT22;52842;52.666;5.202;2022-10-16T05:38:23;19.90;76.00
66057;DHT22;52842;52.666;5.202;2022-10-16T05:40:50;19.90;76.20
66057;DHT22;52842;52.666;5.202;2022-10-16T05:43:17;19.80;76.40
66057;DHT22;52842;52.666;5.202;2022-10-16T05:45:45;19.80;76.60
66057;DHT22;52842;52.666;5.202;2022-10-16T05:48:19;19.70;76.70
66057;DHT22;52842;52.666;5.202;2022-10-16T05:50:46;19.70;76.90
66057;DHT22;52842;52.666;5.202;2022-10-16T05:53:12;19.80;76.90
66057;DHT22;52842;52.666;5.202;2022-10-16T05:55:39;19.80;76.90
66057;DHT22;52842;52.666;5.202;2022-10-16T05:58:05;19.80;76.80
66057;DHT22;52842;52.666;5.202;2022-10-16T06:00:32;19.90;76.80
66057;DHT22;52842;52.666;5.202;2022-10-16T06:03:00;19.90;76.60
66057;DHT22;52842;52.666;5.202;2022-10-16T06:05:27;20.00;76.50
66057;DHT22;52842;52.666;5.202;2022-10-16T06:07:54;20.00;76.40
66057;DHT22;52842;52.666;5.202;2022-10-16T06:10:20;20.00;76.30
66057;DHT22;52842;52.666;5.202;2022-10-16T06:12:47;20.00;76.30
66057;DHT22;52842;52.666;5.202;2022-10-16T06:15:14;19.90;76.30
66057;DHT22;52842;52.666;5.202;2022-10-16T06:17:40;19.90;76.40
66057;DHT22;52842;52.666;5.202;2022-10-16T06:20:09;19.90;76.40
66057;DHT22;52842;52.666;5.202;2022-10-16T06:22:35;19.80;76.50
66057;DHT22;52842;52.666;5.202;2022-10-16T06:25:02;19.80;76.60
66057;DHT22;52842;52.666;5.202;2022-10-16T06:27:29;19.80;76.70
66057;DHT22;52842;52.666;5.202;2022-10-16T06:29:55;19.80;76.90
66057;DHT22;52842;52.666;5.202;2022-10-16T06:32:22;19.70;77.00
66057;DHT22;52842;52.666;5.202;2022-10-16T06:34:49;19.70;77.10
66057;DHT22;52842;52.666;5.202;2022-10-16T06:37:17;19.70;77.80
66057;DHT22;52842;52.666;5.202;2022-10-16T06:39:44;19.70;77.30
66057;DHT22;52842;52.666;5.202;2022-10-16T06:42:10;19.70;77.50
66057;DHT22;52842;52.666;5.202;2022-10-16T06:44:37;19.70;77.60
66057;DHT22;52842;52.666;5.202;2022-10-16T06:47:05;19.80;77.80
66057;DHT22;52842;52.666;5.202;2022-10-16T06:49:31;19.80;77.80
66057;DHT22;52842;52.666;5.202;2022-10-16T06:51:58;19.80;77.90
66057;DHT22;52842;52.666;5.202;2022-10-16T06:54:26;19.80;78.00
66057;DHT22;52842;52.666;5.202;2022-10-16T06:56:53;19.80;77.90
66057;DHT22;52842;52.666;5.202;2022-10-16T06:59:19;19.80;78.00
66057;DHT22;52842;52.666;5.202;2022-10-16T07:01:46;19.80;78.00
66057;DHT22;52842;52.666;5.202;2022-10-16T07:04:13;19.80;78.10
66057;DHT22;52842;52.666;5.202;2022-10-16T07:06:40;19.80;78.10
66057;DHT22;52842;52.666;5.202;2022-10-16T07:09:09;19.80;78.10
66057;DHT22;52842;52.666;5.202;2022-10-16T07:11:37;19.80;78.10
66057;DHT22;52842;52.666;5.202;2022-10-16T07:14:04;19.70;78.10
66057;DHT22;52842;52.666;5.202;2022-10-16T07:16:32;19.70;78.20
66057;DHT22;52842;52.666;5.202;2022-10-16T07:18:59;19.70;78.20
66057;DHT22;52842;52.666;5.202;2022-10-16T07:21:27;19.70;78.20
66057;DHT22;52842;52.666;5.202;2022-10-16T07:23:54;19.70;78.30
66057;DHT22;52842;52.666;5.202;2022-10-16T07:26:22;19.70;78.30
66057;DHT22;52842;52.666;5.202;2022-10-16T07:28:50;19.70;78.30
66057;DHT22;52842;52.666;5.202;2022-10-16T07:31:17;19.70;78.20
66057;DHT22;52842;52.666;5.202;2022-10-16T07:33:44;19.70;78.10
66057;DHT22;52842;52.666;5.202;2022-10-16T07:36:13;19.70;78.00
66057;DHT22;52842;52.666;5.202;2022-10-16T07:38:40;19.80;78.10
66057;DHT22;52842;52.666;5.202;2022-10-16T07:41:08;19.70;78.00
66057;DHT22;52842;52.666;5.202;2022-10-16T07:43:36;19.70;78.00
66057;DHT22;52842;52.666;5.202;2022-10-16T07:46:04;19.70;78.00
66057;DHT22;52842;52.666;5.202;2022-10-16T07:48:32;19.70;77.90
66057;DHT22;52842;52.666;5.202;2022-10-16T07:50:59;19.70;77.90
66057;DHT22;52842;52.666;5.202;2022-10-16T07:53:26;19.70;78.00
66057;DHT22;52842;52.666;5.202;2022-10-16T07:55:56;19.70;78.00
66057;DHT22;52842;52.666;5.202;2022-10-16T07:58:23;19.70;78.00
66057;DHT22;52842;52.666;5.202;2022-10-16T08:00:50;19.70;78.00
66057;DHT22;52842;52.666;5.202;2022-10-16T08:03:18;19.70;78.00
66057;DHT22;52842;52.666;5.202;2022-10-16T08:05:44;19.70;78.10
66057;DHT22;52842;52.666;5.202;2022-10-16T08:08:11;19.70;78.10
66057;DHT22;52842;52.666;5.202;2022-10-16T08:10:39;19.70;78.10
66057;DHT22;52842;52.666;5.202;2022-10-16T08:13:05;19.70;78.00
66057;DHT22;52842;52.666;5.202;2022-10-16T08:15:32;19.70;78.00
66057;DHT22;52842;52.666;5.202;2022-10-16T08:17:59;19.70;78.00
66057;DHT22;52842;52.666;5.202;2022-10-16T08:20:29;19.70;77.90
66057;DHT22;52842;52.666;5.202;2022-10-16T08:22:55;19.70;77.90
66057;DHT22;52842;52.666;5.202;2022-10-16T08:25:22;19.80;77.90
66057;DHT22;52842;52.666;5.202;2022-10-16T08:27:49;19.80;77.90
66057;DHT22;52842;52.666;5.202;2022-10-16T08:30:16;19.80;77.90
66057;DHT22;52842;52.666;5.202;2022-10-16T08:32:43;19.70;77.90
66057;DHT22;52842;52.666;5.202;2022-10-16T08:35:10;19.70;78.50
66057;DHT22;52842;52.666;5.202;2022-10-16T08:37:38;19.70;77.80
66057;DHT22;52842;52.666;5.202;2022-10-16T08:40:05;19.70;77.90
66057;DHT22;52842;52.666;5.202;2022-10-16T08:42:39;19.70;77.90
66057;DHT22;52842;52.666;5.202;2022-10-16T08:45:14;19.70;77.90
66057;DHT22;52842;52.666;5.202;2022-10-16T08:47:47;19.70;78.00
66057;DHT22;52842;52.666;5.202;2022-10-16T08:50:17;19.70;78.00
66057;DHT22;52842;52.666;5.202;2022-10-16T08:52:46;19.80;78.00
66057;DHT22;52842;52.666;5.202;2022-10-16T08:55:16;19.80;77.90
66057;DHT22;52842;52.666;5.202;2022-10-16T08:57:45;19.80;77.80
66057;DHT22;52842;52.666;5.202;2022-10-16T09:00:12;19.80;77.70
66057;DHT22;52842;52.666;5.202;2022-10-16T09:02:40;19.80;77.70
66057;DHT22;52842;52.666;5.202;2022-10-16T09:05:17;19.80;77.70
66057;DHT22;52842;52.666;5.202;2022-10-16T09:07:48;19.80;77.70
66057;DHT22;52842;52.666;5.202;2022-10-16T09:10:21;19.80;77.70
66057;DHT22;52842;52.666;5.202;2022-10-16T09:12:53;19.80;77.80
66057;DHT22;52842;52.666;5.202;2022-10-16T09:15:24;19.80;77.80
66057;DHT22;52842;52.666;5.202;2022-10-16T09:17:55;19.80;77.80
66057;DHT22;52842;52.666;5.202;2022-10-16T09:20:26;19.80;77.80
66057;DHT22;52842;52.666;5.202;2022-10-16T09:22:56;19.80;77.80
66057;DHT22;52842;52.666;5.202;2022-10-16T09:25:27;19.80;77.80
66057;DHT22;52842;52.666;5.202;2022-10-16T09:27:54;19.80;77.90
66057;DHT22;52842;52.666;5.202;2022-10-16T09:30:21;19.80;77.90
66057;DHT22;52842;52.666;5.202;2022-10-16T09:32:50;19.70;77.90
66057;DHT22;52842;52.666;5.202;2022-10-16T09:35:19;19.70;77.90
66057;DHT22;52842;52.666;5.202;2022-10-16T09:37:48;19.70;77.90
66057;DHT22;52842;52.666;5.202;2022-10-16T09:40:25;19.70;78.00
66057;DHT22;52842;52.666;5.202;2022-10-16T09:42:53;19.70;78.00
66057;DHT22;52842;52.666;5.202;2022-10-16T09:45:23;19.70;78.10
66057;DHT22;52842;52.666;5.202;2022-10-16T09:47:50;19.70;78.10
66057;DHT22;52842;52.666;5.202;2022-10-16T09:50:20;19.70;78.10
66057;DHT22;52842;52.666;5.202;2022-10-16T09:52:48;19.70;78.20
66057;DHT22;52842;52.666;5.202;2022-10-16T09:55:15;19.60;78.20
66057;DHT22;52842;52.666;5.202;2022-10-16T09:57:49;19.60;78.10
66057;DHT22;52842;52.666;5.202;2022-10-16T10:00:16;19.60;78.10
66057;DHT22;52842;52.666;5.202;2022-10-16T10:02:43;19.60;78.10
66057;DHT22;52842;52.666;5.202;2022-10-16T10:05:17;19.60;78.10
66057;DHT22;52842;52.666;5.202;2022-10-16T10:07:43;19.60;78.10
66057;DHT22;52842;52.666;5.202;2022-10-16T10:10:18;19.60;78.00
66057;DHT22;52842;52.666;5.202;2022-10-16T10:12:45;19.60;78.00
66057;DHT22;52842;52.666;5.202;2022-10-16T10:15:13;19.60;78.30
66057;DHT22;52842;52.666;5.202;2022-10-16T10:17:46;19.60;78.00
66057;DHT22;52842;52.666;5.202;2022-10-16T10:20:18;19.50;78.00
66057;DHT22;52842;52.666;5.202;2022-10-16T10:22:47;19.50;78.10
66057;DHT22;52842;52.666;5.202;2022-10-16T10:25:30;19.50;78.20
66057;DHT22;52842;52.666;5.202;2022-10-16T10:30:50;19.50;78.40
66057;DHT22;52842;52.666;5.202;2022-10-16T10:33:22;19.40;78.50
66057;DHT22;52842;52.666;5.202;2022-10-16T10:35:53;19.40;78.60
66057;DHT22;52842;52.666;5.202;2022-10-16T10:38:31;19.40;78.70
66057;DHT22;52842;52.666;5.202;2022-10-16T10:41:05;19.40;78.90
66057;DHT22;52842;52.666;5.202;2022-10-16T10:43:41;19.40;79.10
66057;DHT22;52842;52.666;5.202;2022-10-16T10:46:13;19.40;79.20
66057;DHT22;52842;52.666;5.202;2022-10-16T10:51:28;19.30;79.30
66057;DHT22;52842;52.666;5.202;2022-10-16T10:53:59;19.30;79.40
66057;DHT22;52842;52.666;5.202;2022-10-16T10:56:37;19.30;79.40
66057;DHT22;52842;52.666;5.202;2022-10-16T10:59:09;19.40;79.50
66057;DHT22;52842;52.666;5.202;2022-10-16T11:01:46;19.30;79.60
66057;DHT22;52842;52.666;5.202;2022-10-16T11:04:19;19.30;79.70
66057;DHT22;52842;52.666;5.202;2022-10-16T11:06:49;19.30;79.70
66057;DHT22;52842;52.666;5.202;2022-10-16T11:09:17;19.30;79.70
66057;DHT22;52842;52.666;5.202;2022-10-16T11:11:45;19.30;79.80
66057;DHT22;52842;52.666;5.202;2022-10-16T11:14:16;19.30;79.80
66057;DHT22;52842;52.666;5.202;2022-10-16T11:16:44;19.30;79.90
66057;DHT22;52842;52.666;5.202;2022-10-16T11:19:18;19.30;79.90
66057;DHT22;52842;52.666;5.202;2022-10-16T11:21:49;19.30;79.90
66057;DHT22;52842;52.666;5.202;2022-10-16T11:24:19;19.30;79.90
66057;DHT22;52842;52.666;5.202;2022-10-16T11:26:47;19.30;79.90
66057;DHT22;52842;52.666;5.202;2022-10-16T11:29:16;19.30;79.90
66057;DHT22;52842;52.666;5.202;2022-10-16T11:31:45;19.30;79.90
66057;DHT22;52842;52.666;5.202;2022-10-16T11:34:13;19.30;80.00
66057;DHT22;52842;52.666;5.202;2022-10-16T11:36:46;19.30;80.00
66057;DHT22;52842;52.666;5.202;2022-10-16T11:39:19;19.20;79.90
66057;DHT22;52842;52.666;5.202;2022-10-16T11:41:47;19.30;80.00
66057;DHT22;52842;52.666;5.202;2022-10-16T11:44:18;19.30;80.10
66057;DHT22;52842;52.666;5.202;2022-10-16T11:46:48;19.20;80.10
66057;DHT22;52842;52.666;5.202;2022-10-16T11:49:18;19.30;80.20
66057;DHT22;52842;52.666;5.202;2022-10-16T11:51:51;19.20;80.30
66057;DHT22;52842;52.666;5.202;2022-10-16T11:54:24;19.20;80.30
66057;DHT22;52842;52.666;5.202;2022-10-16T11:56:55;19.30;80.30
66057;DHT22;52842;52.666;5.202;2022-10-16T11:59:26;19.40;80.30
66057;DHT22;52842;52.666;5.202;2022-10-16T12:01:56;19.60;80.30
66057;DHT22;52842;52.666;5.202;2022-10-16T12:04:24;19.90;79.90
66057;DHT22;52842;52.666;5.202;2022-10-16T12:06:56;20.00;78.90
66057;DHT22;52842;52.666;5.202;2022-10-16T12:09:24;20.10;78.30
66057;DHT22;52842;52.666;5.202;2022-10-16T12:11:52;20.10;78.10
66057;DHT22;52842;52.666;5.202;2022-10-16T12:14:21;20.10;78.10
66057;DHT22;52842;52.666;5.202;2022-10-16T12:16:51;20.00;78.10
66057;DHT22;52842;52.666;5.202;2022-10-16T12:19:18;20.00;78.20
66057;DHT22;52842;52.666;5.202;2022-10-16T12:21:45;20.00;78.30
66057;DHT22;52842;52.666;5.202;2022-10-16T12:24:21;20.00;78.40
66057;DHT22;52842;52.666;5.202;2022-10-16T12:26:48;20.00;78.40
66057;DHT22;52842;52.666;5.202;2022-10-16T12:29:20;20.00;78.40
66057;DHT22;52842;52.666;5.202;2022-10-16T12:31:48;20.00;78.40
66057;DHT22;52842;52.666;5.202;2022-10-16T12:34:20;20.00;78.40
66057;DHT22;52842;52.666;5.202;2022-10-16T12:36:47;20.00;78.40
66057;DHT22;52842;52.666;5.202;2022-10-16T12:39:20;20.00;78.50
66057;DHT22;52842;52.666;5.202;2022-10-16T12:41:48;20.00;78.50
66057;DHT22;52842;52.666;5.202;2022-10-16T12:44:26;20.00;78.50
66057;DHT22;52842;52.666;5.202;2022-10-16T12:46:57;20.10;78.40
66057;DHT22;52842;52.666;5.202;2022-10-16T12:49:29;20.10;78.30
66057;DHT22;52842;52.666;5.202;2022-10-16T12:51:56;20.10;78.20
66057;DHT22;52842;52.666;5.202;2022-10-16T12:54:27;20.10;78.20
66057;DHT22;52842;52.666;5.202;2022-10-16T12:56:58;20.10;78.20
66057;DHT22;52842;52.666;5.202;2022-10-16T12:59:36;20.10;78.20
66057;DHT22;52842;52.666;5.202;2022-10-16T13:05:00;20.10;78.10
66057;DHT22;52842;52.666;5.202;2022-10-16T13:07:36;20.20;78.10
66057;DHT22;52842;52.666;5.202;2022-10-16T13:10:11;20.20;78.10
66057;DHT22;52842;52.666;5.202;2022-10-16T13:12:52;20.20;78.10
66057;DHT22;52842;52.666;5.202;2022-10-16T13:15:28;20.20;78.00
66057;DHT22;52842;52.666;5.202;2022-10-16T13:17:59;20.20;78.00
66057;DHT22;52842;52.666;5.202;2022-10-16T13:20:29;20.20;78.00
66057;DHT22;52842;52.666;5.202;2022-10-16T13:22:59;20.20;78.00
66057;DHT22;52842;52.666;5.202;2022-10-16T13:25:31;20.20;77.90
66057;DHT22;52842;52.666;5.202;2022-10-16T13:28:01;20.20;77.90
66057;DHT22;52842;52.666;5.202;2022-10-16T13:30:28;20.20;77.80
66057;DHT22;52842;52.666;5.202;2022-10-16T13:32:57;20.30;77.70
66057;DHT22;52842;52.666;5.202;2022-10-16T13:35:25;20.30;77.60
66057;DHT22;52842;52.666;5.202;2022-10-16T13:38:02;20.40;77.50
66057;DHT22;52842;52.666;5.202;2022-10-16T13:40:30;20.40;77.50
66057;DHT22;52842;52.666;5.202;2022-10-16T13:42:59;20.50;77.40
66057;DHT22;52842;52.666;5.202;2022-10-16T13:45:26;20.50;77.20
66057;DHT22;52842;52.666;5.202;2022-10-16T13:48:01;20.60;77.00
66057;DHT22;52842;52.666;5.202;2022-10-16T13:50:27;20.70;76.90
66057;DHT22;52842;52.666;5.202;2022-10-16T13:53:02;20.80;76.80
66057;DHT22;52842;52.666;5.202;2022-10-16T13:55:30;20.80;76.60
66057;DHT22;52842;52.666;5.202;2022-10-16T13:58:04;20.90;76.50
66057;DHT22;52842;52.666;5.202;2022-10-16T14:00:30;21.00;76.30
66057;DHT22;52842;52.666;5.202;2022-10-16T14:02:58;21.10;76.20
66057;DHT22;52842;52.666;5.202;2022-10-16T14:05:26;21.10;76.00
66057;DHT22;52842;52.666;5.202;2022-10-16T14:07:53;21.20;75.90
66057;DHT22;52842;52.666;5.202;2022-10-16T14:10:22;21.30;75.80
66057;DHT22;52842;52.666;5.202;2022-10-16T14:12:55;21.40;75.70
66057;DHT22;52842;52.666;5.202;2022-10-16T14:15:22;21.50;75.60
66057;DHT22;52842;52.666;5.202;2022-10-16T14:17:49;21.50;75.30
66057;DHT22;52842;52.666;5.202;2022-10-16T14:20:17;21.60;75.40
66057;DHT22;52842;52.666;5.202;2022-10-16T14:22:44;21.60;75.40
66057;DHT22;52842;52.666;5.202;2022-10-16T14:25:23;21.60;75.40
66057;DHT22;52842;52.666;5.202;2022-10-16T14:27:59;21.60;75.40
66057;DHT22;52842;52.666;5.202;2022-10-16T14:30:27;21.60;75.50
66057;DHT22;52842;52.666;5.202;2022-10-16T14:32:54;21.60;75.50
66057;DHT22;52842;52.666;5.202;2022-10-16T14:35:22;21.60;75.50
66057;DHT22;52842;52.666;5.202;2022-10-16T14:37:51;21.60;75.50
66057;DHT22;52842;52.666;5.202;2022-10-16T14:40:17;21.60;75.60
66057;DHT22;52842;52.666;5.202;2022-10-16T14:42:44;21.60;75.60
66057;DHT22;52842;52.666;5.202;2022-10-16T14:45:15;21.60;75.60
66057;DHT22;52842;52.666;5.202;2022-10-16T14:47:47;21.60;75.60
66057;DHT22;52842;52.666;5.202;2022-10-16T14:50:14;21.60;75.70
66057;DHT22;52842;52.666;5.202;2022-10-16T14:52:41;21.60;75.70
66057;DHT22;52842;52.666;5.202;2022-10-16T14:55:09;21.60;75.70
66057;DHT22;52842;52.666;5.202;2022-10-16T14:57:35;21.60;75.80
66057;DHT22;52842;52.666;5.202;2022-10-16T15:00:04;21.60;75.80
66057;DHT22;52842;52.666;5.202;2022-10-16T15:02:36;21.60;75.90
66057;DHT22;52842;52.666;5.202;2022-10-16T15:05:07;21.60;76.00
66057;DHT22;52842;52.666;5.202;2022-10-16T15:07:36;21.50;76.00
66057;DHT22;52842;52.666;5.202;2022-10-16T15:10:03;21.50;76.00
66057;DHT22;52842;52.666;5.202;2022-10-16T15:12:30;21.50;76.10
66057;DHT22;52842;52.666;5.202;2022-10-16T15:14:57;21.50;76.10
66057;DHT22;52842;52.666;5.202;2022-10-16T15:17:23;21.50;76.20
66057;DHT22;52842;52.666;5.202;2022-10-16T15:19:51;21.50;76.20
66057;DHT22;52842;52.666;5.202;2022-10-16T15:22:18;21.50;76.30
66057;DHT22;52842;52.666;5.202;2022-10-16T15:24:44;21.40;76.20
66057;DHT22;52842;52.666;5.202;2022-10-16T15:27:11;21.40;76.30
66057;DHT22;52842;52.666;5.202;2022-10-16T15:29:38;21.40;76.40
66057;DHT22;52842;52.666;5.202;2022-10-16T15:32:04;21.40;76.40
66057;DHT22;52842;52.666;5.202;2022-10-16T15:34:31;21.40;76.40
66057;DHT22;52842;52.666;5.202;2022-10-16T15:37:01;21.40;76.40
66057;DHT22;52842;52.666;5.202;2022-10-16T15:39:28;21.40;76.20
66057;DHT22;52842;52.666;5.202;2022-10-16T15:41:55;21.40;76.10
66057;DHT22;52842;52.666;5.202;2022-10-16T15:44:22;21.40;76.00
66057;DHT22;52842;52.666;5.202;2022-10-16T15:46:51;21.40;75.90
66057;DHT22;52842;52.666;5.202;2022-10-16T15:49:20;21.30;75.90